Time;durP1;ratioP1;P1;durP2;ratioP2;P2;SDS_P1;SDS_P2;PMS_P1;PMS_P2;Temp;Humidity;BMP_temperature;BMP_pressure;BME280_temperature;BME280_humidity;BME280_pressure;Samples;Min_cycle;Max_cycle;Signal;HPM_P1;HPM_P2
2021/03/26 00:01:23;;;;;;;552.30;240.03;;;;;;;-144.99;97.03;52311.53;5079188;28;20220;-76
2021/03/26 00:03:53;;;;;;;540.60;217.07;;;;;;;-144.99;97.43;52346.19;5089114;28;20637;-75
2021/03/26 00:06:21;;;;;;;549.67;238.77;;;;;;;-144.99;97.73;52354.34;5089791;28;21160;-74
2021/03/26 00:08:49;;;;;;;543.20;222.20;;;;;;;-144.99;97.93;52342.09;5090765;28;21160;-73
2021/03/26 00:11:28;;;;;;;545.97;234.20;;;;;;;-144.99;98.21;52358.41;5088397;28;20663;-72
2021/03/26 00:13:54;;;;;;;542.57;223.07;;;;;;;-144.99;98.73;52362.50;5076986;28;20932;-74
2021/03/26 00:16:20;;;;;;;544.27;234.13;;;;;;;-144.99;98.85;52321.72;5090380;28;20621;-74
2021/03/26 00:18:46;;;;;;;546.60;243.37;;;;;;;-144.99;99.09;52346.19;5084061;28;20216;-73
2021/03/26 00:21:13;;;;;;;542.67;223.70;;;;;;;-144.99;99.50;52303.38;5076281;28;20748;-74
2021/03/26 00:23:39;;;;;;;542.40;222.93;;;;;;;-144.99;99.64;52321.72;5086363;28;20212;-75
2021/03/26 00:26:06;;;;;;;539.87;223.33;;;;;;;-144.99;99.65;52325.81;5085543;28;21047;-73
2021/03/26 00:28:32;;;;;;;545.30;222.40;;;;;;;-144.99;99.68;52333.94;5085686;28;20249;-75
2021/03/26 00:30:59;;;;;;;536.60;209.97;;;;;;;-144.99;99.86;52370.63;5091101;28;20645;-74
2021/03/26 00:33:25;;;;;;;542.17;213.07;;;;;;;-144.99;100.00;52350.25;5081469;28;20627;-77
2021/03/26 00:35:54;;;;;;;535.47;205.57;;;;;;;-144.99;100.00;52360.44;5086760;28;20662;-76
2021/03/26 00:38:20;;;;;;;540.17;207.43;;;;;;;-144.99;100.00;52342.09;5083505;28;20633;-77
2021/03/26 00:40:46;;;;;;;545.40;215.13;;;;;;;-144.99;100.00;52338.03;5079892;28;20621;-75
2021/03/26 00:43:12;;;;;;;537.97;207.87;;;;;;;-144.99;100.00;52313.56;5088499;28;21195;-77
2021/03/26 00:45:39;;;;;;;540.80;208.20;;;;;;;-144.99;100.00;52342.09;5090492;28;20200;-77
2021/03/26 00:48:06;;;;;;;538.60;205.70;;;;;;;-144.99;100.00;52338.03;5089991;28;20617;-78
2021/03/26 00:50:38;;;;;;;538.37;213.50;;;;;;;-144.99;100.00;52333.94;5089988;28;20614;-78
2021/03/26 00:53:09;;;;;;;535.47;216.40;;;;;;;-144.99;100.00;52338.03;5084454;28;20981;-75
2021/03/26 00:55:36;;;;;;;536.90;202.67;;;;;;;-144.99;100.00;52313.56;5080508;28;20626;-78
2021/03/26 00:58:02;;;;;;;540.47;206.07;;;;;;;-144.99;100.00;52354.34;5077272;28;20622;-76
2021/03/26 01:00:30;;;;;;;537.80;206.30;;;;;;;-144.99;100.00;52297.25;5076324;28;20647;-76
2021/03/26 01:02:57;;;;;;;544.40;207.77;;;;;;;-144.99;100.00;52338.03;5084452;28;20646;-76
2021/03/26 01:05:26;;;;;;;543.13;204.77;;;;;;;-144.99;100.00;52362.50;5091830;28;20743;-78
2021/03/26 01:07:53;;;;;;;537.50;208.80;;;;;;;-144.99;100.00;52344.16;5088385;28;20684;-77
2021/03/26 01:10:23;;;;;;;537.17;194.27;;;;;;;-144.99;100.00;52317.66;5094414;28;20602;-77
2021/03/26 01:12:49;;;;;;;535.53;201.63;;;;;;;-144.99;100.00;52338.03;5082446;28;20710;-77
2021/03/26 01:15:18;;;;;;;535.10;192.70;;;;;;;-144.99;100.00;52321.72;5088128;28;20629;-77
2021/03/26 01:17:49;;;;;;;539.33;200.73;;;;;;;-144.99;100.00;52350.25;5091467;28;21031;-77
2021/03/26 01:20:21;;;;;;;539.83;199.70;;;;;;;-144.99;100.00;52346.19;5092998;28;20676;-77
2021/03/26 01:22:47;;;;;;;539.17;199.83;;;;;;;-144.99;99.76;52350.25;5085679;28;20650;-77
2021/03/26 01:25:16;;;;;;;537.20;196.63;;;;;;;-144.99;99.65;52315.59;5092120;28;20638;-77
2021/03/26 01:27:42;;;;;;;533.80;187.53;;;;;;;-144.99;99.43;52321.72;5083422;28;20639;-77
2021/03/26 01:30:11;;;;;;;535.63;188.37;;;;;;;-144.99;99.46;52346.19;5091152;28;20629;-77
2021/03/26 01:32:37;;;;;;;538.67;202.27;;;;;;;-144.99;99.55;52327.84;5094209;28;20718;-77
2021/03/26 01:35:06;;;;;;;533.70;195.97;;;;;;;-144.99;99.48;52327.84;5093532;28;20630;-76
2021/03/26 01:37:33;;;;;;;537.63;194.30;;;;;;;-144.99;99.43;52315.59;5084457;28;20626;-76
2021/03/26 01:39:59;;;;;;;535.10;195.87;;;;;;;-144.99;99.42;52338.03;5090224;28;20654;-76
2021/03/26 01:42:26;;;;;;;539.57;196.73;;;;;;;-144.99;99.57;52346.19;5087504;28;21062;-74
2021/03/26 01:44:53;;;;;;;540.77;194.90;;;;;;;-144.99;99.61;52360.44;5088870;28;20212;-75
2021/03/26 01:47:20;;;;;;;536.80;195.47;;;;;;;-144.99;99.69;52368.59;5085465;28;21028;-76
2021/03/26 01:49:46;;;;;;;532.50;183.63;;;;;;;-144.99;99.56;52362.50;5093323;28;20975;-76
2021/03/26 01:52:13;;;;;;;529.87;185.37;;;;;;;-144.99;99.58;52386.94;5090213;28;20660;-76
2021/03/26 01:54:39;;;;;;;533.50;191.23;;;;;;;-144.99;99.89;52358.41;5087013;28;20667;-76
2021/03/26 01:57:06;;;;;;;528.23;175.50;;;;;;;-144.99;99.69;52342.09;5088908;28;20714;-75
2021/03/26 01:59:32;;;;;;;530.10;178.30;;;;;;;-144.99;99.73;52325.81;5094122;28;20768;-75
2021/03/26 02:02:01;;;;;;;534.33;189.00;;;;;;;-144.99;99.77;52354.34;5093287;28;20665;-76
2021/03/26 02:04:31;;;;;;;529.97;180.90;;;;;;;-144.99;99.69;52354.34;5089166;28;20618;-75
2021/03/26 02:06:58;;;;;;;532.90;186.80;;;;;;;-144.99;99.92;52329.88;5086406;28;20633;-75
2021/03/26 02:09:29;;;;;;;534.10;190.23;;;;;;;-144.99;99.99;52325.81;5088741;28;21171;-74
2021/03/26 02:11:58;;;;;;;533.87;187.03;;;;;;;-144.99;100.00;52338.03;5085464;28;20641;-75
2021/03/26 02:14:31;;;;;;;528.07;180.60;;;;;;;-144.99;100.00;52391.03;5085298;28;20619;-75
2021/03/26 02:16:58;;;;;;;529.40;175.43;;;;;;;-144.99;100.00;52338.03;5086829;28;20641;-76
2021/03/26 02:19:29;;;;;;;528.73;174.10;;;;;;;-144.99;100.00;52358.41;5090947;28;21214;-75
2021/03/26 02:21:55;;;;;;;528.97;180.13;;;;;;;-144.99;100.00;52364.53;5087625;28;20661;-74
2021/03/26 02:24:24;;;;;;;529.13;179.23;;;;;;;-144.99;100.00;52350.25;5091648;28;20664;-76
2021/03/26 02:26:53;;;;;;;528.43;180.43;;;;;;;-144.99;100.00;52333.94;5086643;28;20622;-76
2021/03/26 02:29:23;;;;;;;528.23;171.60;;;;;;;-144.99;100.00;52344.16;5080158;28;20619;-77
2021/03/26 02:31:51;;;;;;;525.77;173.40;;;;;;;-144.99;100.00;52368.59;5086765;28;20724;-75
2021/03/26 02:34:17;;;;;;;530.77;177.13;;;;;;;-144.99;100.00;52317.66;5092628;28;20622;-75
2021/03/26 02:36:47;;;;;;;529.30;172.07;;;;;;;-144.99;100.00;52317.66;5093120;28;21226;-75
2021/03/26 02:39:29;;;;;;;525.03;170.70;;;;;;;-144.99;100.00;52327.84;5082025;28;20216;-76
2021/03/26 02:41:57;;;;;;;528.83;176.67;;;;;;;-144.99;100.00;52358.41;5084092;28;20818;-74
2021/03/26 02:44:33;;;;;;;531.63;173.97;;;;;;;-144.99;100.00;52360.44;5085201;28;20973;-75
2021/03/26 02:47:19;;;;;;;523.80;172.43;;;;;;;-144.99;100.00;52350.25;5090551;28;21198;-74
2021/03/26 02:49:51;;;;;;;525.87;168.33;;;;;;;-144.99;100.00;52342.09;5087345;28;20716;-74
2021/03/26 02:52:27;;;;;;;530.60;175.27;;;;;;;-144.99;100.00;52368.59;5079445;28;20647;-75
2021/03/26 02:54:59;;;;;;;526.50;170.03;;;;;;;-144.99;100.00;52307.47;5089038;28;20625;-75
2021/03/26 02:57:30;;;;;;;526.33;168.73;;;;;;;-144.99;100.00;52358.41;5090536;28;20614;-71
2021/03/26 03:00:01;;;;;;;527.87;168.87;;;;;;;-144.99;100.00;52346.19;5087320;28;20669;-73
2021/03/26 03:02:28;;;;;;;526.47;173.80;;;;;;;-144.99;100.00;52311.53;5090761;28;20749;-72
2021/03/26 03:05:01;;;;;;;526.73;177.73;;;;;;;-144.99;100.00;52338.03;5090358;28;20614;-73
2021/03/26 03:07:32;;;;;;;525.90;169.67;;;;;;;-144.99;100.00;52342.09;5090002;28;20599;-73
2021/03/26 03:10:07;;;;;;;523.83;167.13;;;;;;;-144.99;100.00;52301.34;5088603;28;20840;-73
2021/03/26 03:12:38;;;;;;;539.57;235.23;;;;;;;-144.99;100.00;52393.06;5080966;28;20601;-73
2021/03/26 03:15:12;;;;;;;534.93;239.30;;;;;;;-144.99;100.00;52342.09;5089069;28;21246;-77
2021/03/26 03:17:42;;;;;;;554.43;222.80;;;;;;;-144.99;100.00;52366.56;5078964;28;20628;-77
2021/03/26 03:20:17;;;;;;;538.37;241.47;;;;;;;-144.99;100.00;52313.56;5088541;28;20654;-77
2021/03/26 03:22:45;;;;;;;490.30;243.27;;;;;;;-144.99;100.00;52382.88;5081537;28;20932;-77
2021/03/26 03:25:16;;;;;;;459.77;249.00;;;;;;;-144.99;100.00;52309.50;5089953;28;20628;-77
2021/03/26 03:27:49;;;;;;;444.40;235.87;;;;;;;-144.99;100.00;52340.06;5087507;28;20615;-76
2021/03/26 03:30:28;;;;;;;421.20;241.00;;;;;;;-144.99;100.00;52366.56;5086294;28;20657;-76
2021/03/26 03:33:02;;;;;;;400.97;223.47;;;;;;;-144.99;100.00;52333.94;5080390;28;20661;-75
2021/03/26 03:35:35;;;;;;;380.43;248.57;;;;;;;-144.99;100.00;52362.50;5090025;28;20609;-74
2021/03/26 03:38:11;;;;;;;328.80;229.30;;;;;;;-144.99;100.00;52338.03;5082557;28;20843;-75
2021/03/26 03:40:48;;;;;;;429.70;237.07;;;;;;;-144.99;100.00;52350.25;5083914;28;21215;-75
2021/03/26 03:43:22;;;;;;;384.73;227.23;;;;;;;-144.99;100.00;52333.94;5088622;28;20984;-76
2021/03/26 03:45:54;;;;;;;330.57;221.23;;;;;;;-144.99;100.00;52354.34;5080734;28;21237;-75
2021/03/26 03:48:31;;;;;;;232.63;207.13;;;;;;;-144.99;100.00;52342.09;5090366;28;20626;-75
2021/03/26 03:51:01;;;;;;;275.13;213.80;;;;;;;-144.99;100.00;52346.19;5083028;28;20682;-75
2021/03/26 03:53:32;;;;;;;245.87;212.07;;;;;;;-144.99;100.00;52342.09;5076262;28;20610;-76
2021/03/26 03:56:04;;;;;;;300.30;234.13;;;;;;;-144.99;100.00;52327.84;5087396;28;20633;-76
2021/03/26 03:58:36;;;;;;;236.60;209.83;;;;;;;-144.99;100.00;52362.50;5079974;28;20610;-76
2021/03/26 04:01:06;;;;;;;215.67;194.20;;;;;;;-144.99;100.00;52325.81;5084027;28;20629;-76
2021/03/26 04:03:38;;;;;;;284.23;214.23;;;;;;;-144.99;100.00;52321.72;5084545;28;20644;-74
2021/03/26 04:06:09;;;;;;;234.57;209.27;;;;;;;-144.99;100.00;52370.63;5088279;28;20733;-75
2021/03/26 04:08:41;;;;;;;204.33;183.53;;;;;;;-144.99;100.00;52309.50;5085652;28;20618;-74
2021/03/26 04:11:14;;;;;;;303.87;224.17;;;;;;;-144.99;100.00;52362.50;5089890;28;20650;-75
2021/03/26 04:13:45;;;;;;;400.93;261.60;;;;;;;-144.99;100.00;52370.63;5084560;28;21206;-74
2021/03/26 04:16:16;;;;;;;279.13;222.70;;;;;;;-144.99;100.00;52354.34;5076895;28;20722;-74
2021/03/26 04:18:46;;;;;;;430.83;238.90;;;;;;;-144.99;100.00;52358.41;5080198;28;20626;-74
2021/03/26 04:21:17;;;;;;;417.10;231.93;;;;;;;-144.99;100.00;52319.69;5083182;28;21066;-74
2021/03/26 04:23:50;;;;;;;442.90;248.23;;;;;;;-144.99;100.00;52348.22;5078121;28;20634;-75
2021/03/26 04:26:22;;;;;;;460.10;279.93;;;;;;;-144.99;100.00;52321.72;5080133;28;20945;-75
2021/03/26 04:28:56;;;;;;;233.83;194.70;;;;;;;-144.99;100.00;52342.09;5086507;28;20602;-75
2021/03/26 04:31:27;;;;;;;286.43;216.47;;;;;;;-144.99;100.00;52366.56;5085422;28;20842;-75
2021/03/26 04:33:54;;;;;;;405.43;239.77;;;;;;;-144.99;100.00;52350.25;5088952;28;20603;-74
2021/03/26 04:36:27;;;;;;;425.70;251.00;;;;;;;-144.99;100.00;52340.06;5086939;28;20629;-77
2021/03/26 04:39:01;;;;;;;340.03;243.13;;;;;;;-144.99;100.00;52321.72;5085922;28;20606;-77
2021/03/26 04:41:35;;;;;;;388.37;249.30;;;;;;;-144.99;100.00;52358.41;5091393;28;20784;-76
2021/03/26 04:44:06;;;;;;;355.33;231.73;;;;;;;-144.99;100.00;52329.88;5083740;28;20936;-77
2021/03/26 04:46:39;;;;;;;258.60;220.10;;;;;;;-144.99;100.00;52293.19;5093222;28;20606;-77
2021/03/26 04:49:09;;;;;;;372.67;253.63;;;;;;;-144.99;100.00;52333.94;5094300;28;20965;-78
2021/03/26 04:51:39;;;;;;;405.33;250.00;;;;;;;-144.99;100.00;52333.94;5090152;28;20643;-77
2021/03/26 04:54:13;;;;;;;297.73;208.40;;;;;;;-144.99;100.00;52354.34;5086926;28;20622;-77
2021/03/26 04:56:45;;;;;;;304.43;210.57;;;;;;;-144.99;100.00;52386.94;5085900;28;20626;-77
2021/03/26 04:59:13;;;;;;;304.20;206.30;;;;;;;-144.99;100.00;52362.50;5090941;28;20666;-77
2021/03/26 05:01:42;;;;;;;283.27;211.50;;;;;;;-144.99;100.00;52309.50;5097733;28;20664;-77
2021/03/26 05:04:14;;;;;;;302.20;216.00;;;;;;;-144.99;100.00;52329.88;5094380;28;20641;-74
2021/03/26 05:06:44;;;;;;;350.37;216.90;;;;;;;-144.99;100.00;52342.09;5095117;28;20622;-74
2021/03/26 05:09:13;;;;;;;289.43;219.63;;;;;;;-144.99;100.00;52350.25;5093075;28;20633;-73
2021/03/26 05:11:44;;;;;;;239.10;199.70;;;;;;;-144.99;100.00;52374.72;5091928;28;20646;-74
2021/03/26 05:14:14;;;;;;;228.13;191.73;;;;;;;-144.99;100.00;52362.50;5091725;28;20726;-73
2021/03/26 05:16:48;;;;;;;291.50;211.67;;;;;;;-144.99;100.00;52338.03;5098611;28;20622;-73
2021/03/26 05:19:19;;;;;;;183.63;164.53;;;;;;;-144.99;100.00;52325.81;5097099;28;21102;-74
2021/03/26 05:21:49;;;;;;;134.50;122.40;;;;;;;-144.99;100.00;52333.94;5092679;28;20662;-74
2021/03/26 05:24:21;;;;;;;208.97;179.03;;;;;;;-144.99;100.00;52354.34;5106100;28;21012;-76
2021/03/26 05:26:49;;;;;;;420.67;299.30;;;;;;;-144.99;100.00;52321.72;5119528;22;20681;-73
2021/03/26 05:29:15;;;;;;;494.47;277.77;;;;;;;-144.99;100.00;52354.34;5103792;28;20950;-75
2021/03/26 05:31:52;;;;;;;475.90;262.07;;;;;;;-144.99;100.00;52321.72;5103031;28;21108;-75
2021/03/26 05:34:23;;;;;;;413.50;249.33;;;;;;;-144.99;100.00;52333.94;5105856;28;20666;-76
2021/03/26 05:37:02;;;;;;;335.23;233.07;;;;;;;-144.99;100.00;52342.09;5110541;27;20739;-74
2021/03/26 05:39:32;;;;;;;354.70;231.63;;;;;;;-144.99;100.00;52333.94;5122645;27;20750;-75
2021/03/26 05:42:19;;;;;;;171.10;152.43;;;;;;;-144.99;100.00;52338.03;5113553;27;20699;-80
2021/03/26 05:44:56;;;;;;;167.60;150.83;;;;;;;-144.99;100.00;52378.78;5103107;27;20637;-75
2021/03/26 05:47:37;;;;;;;187.23;167.80;;;;;;;-144.99;100.00;52368.59;5110232;28;20752;-76
2021/03/26 05:50:17;;;;;;;226.23;186.40;;;;;;;-144.99;100.00;52354.34;5111196;27;20626;-78
2021/03/26 05:53:03;;;;;;;264.53;201.33;;;;;;;-144.99;100.00;52327.84;5112056;27;20629;-75
2021/03/26 05:55:42;;;;;;;253.50;199.80;;;;;;;-144.99;100.00;52313.56;5116604;27;20620;-72
2021/03/26 05:58:31;;;;;;;356.17;209.90;;;;;;;-144.99;100.00;52309.50;5107891;27;21073;-75
2021/03/26 06:01:27;;;;;;;333.70;208.73;;;;;;;-144.99;100.00;52315.59;5112749;27;21018;-75
2021/03/26 06:04:28;;;;;;;335.23;218.37;;;;;;;-144.99;100.00;52317.66;5117921;27;20628;-73
2021/03/26 06:07:18;;;;;;;350.87;214.37;;;;;;;-144.99;100.00;52293.19;5100500;27;20647;-74
2021/03/26 06:10:12;;;;;;;392.67;216.60;;;;;;;-144.99;100.00;52327.84;5115035;27;20967;-74
2021/03/26 06:12:55;;;;;;;530.43;264.93;;;;;;;-144.99;100.00;52391.03;5098720;27;20657;-72
2021/03/26 06:15:53;;;;;;;504.23;253.27;;;;;;;-144.99;100.00;52325.81;5096619;28;20621;-73
2021/03/26 06:18:38;;;;;;;475.13;256.00;;;;;;;-144.99;100.00;52331.91;5108876;27;20633;-74
2021/03/26 06:21:23;;;;;;;486.40;246.40;;;;;;;-144.99;100.00;52323.75;5100391;28;20633;-72
2021/03/26 06:24:27;;;;;;;261.17;209.83;;;;;;;-144.99;100.00;52325.81;5104637;27;20628;-71
2021/03/26 06:27:01;;;;;;;281.53;217.93;;;;;;;-144.99;100.00;52313.56;5065526;28;20672;-73
2021/03/26 06:29:40;;;;;;;394.83;241.47;;;;;;;-144.99;100.00;52358.41;5098282;27;20994;-72
2021/03/26 06:32:48;;;;;;;299.27;235.83;;;;;;;-144.99;100.00;52333.94;5110801;27;21038;-74
2021/03/26 06:35:53;;;;;;;352.57;241.70;;;;;;;-144.99;100.00;52301.34;5090120;28;20626;-74
2021/03/26 06:38:36;;;;;;;439.63;258.13;;;;;;;-144.99;100.00;52340.06;5096527;28;20636;-72
2021/03/26 06:41:14;;;;;;;397.97;248.80;;;;;;;-144.99;100.00;52321.72;5105771;27;20673;-76
2021/03/26 06:44:16;;;;;;;485.77;268.73;;;;;;;-144.99;100.00;52315.59;5118050;27;21227;-73
2021/03/26 06:46:53;;;;;;;547.17;273.23;;;;;;;-144.99;100.00;52325.81;5106553;28;21023;-74
2021/03/26 06:49:31;;;;;;;524.60;290.17;;;;;;;-144.99;100.00;52333.94;5113815;27;20612;-74
2021/03/26 06:52:13;;;;;;;509.83;288.87;;;;;;;-144.99;100.00;52301.34;5107058;27;20612;-73
2021/03/26 06:55:11;;;;;;;510.53;300.07;;;;;;;-144.99;100.00;52319.69;5101948;28;20613;-74
2021/03/26 06:58:00;;;;;;;518.13;304.70;;;;;;;-144.99;100.00;52289.13;5099247;28;20664;-74
2021/03/26 07:00:42;;;;;;;538.30;296.03;;;;;;;-144.99;100.00;52297.25;5121772;27;20640;-75
2021/03/26 07:03:43;;;;;;;555.27;311.20;;;;;;;-144.99;99.65;52272.81;5121039;27;20609;-75
2021/03/26 07:06:34;;;;;;;529.67;308.80;;;;;;;-144.99;99.23;52309.50;5116586;27;20626;-79
2021/03/26 07:09:13;;;;;;;536.87;317.87;;;;;;;-144.99;98.66;52333.94;5126537;27;20600;-76
2021/03/26 07:12:04;;;;;;;570.23;322.47;;;;;;;-144.99;97.94;52264.66;5148893;27;20607;-77
2021/03/26 07:14:46;;;;;;;584.07;309.27;;;;;;;-144.99;97.69;52252.44;5125773;27;20624;-76
2021/03/26 07:17:45;;;;;;;583.20;319.70;;;;;;;-144.99;96.82;52329.88;5117689;28;21226;-76
2021/03/26 07:20:27;;;;;;;585.07;318.03;;;;;;;-144.99;96.47;52293.19;5109884;28;20744;-78
2021/03/26 07:23:21;;;;;;;584.70;351.53;;;;;;;-144.99;96.24;52313.56;5104899;27;20612;-75
2021/03/26 07:25:57;;;;;;;569.10;356.10;;;;;;;-144.99;94.99;52313.56;5114026;27;20621;-75
2021/03/26 07:28:34;;;;;;;543.83;376.30;;;;;;;-144.99;94.96;52244.28;5104151;28;20734;-72
2021/03/26 07:31:14;;;;;;;561.23;377.77;;;;;;;-144.99;94.65;52272.81;5103554;27;20620;-74
2021/03/26 07:33:46;;;;;;;573.33;372.93;;;;;;;-144.99;94.57;52297.25;5113221;27;20199;-75
2021/03/26 07:36:36;;;;;;;591.50;373.40;;;;;;;-144.99;93.68;52272.81;5104090;27;20625;-73
2021/03/26 07:39:22;;;;;;;589.97;366.20;;;;;;;-144.99;93.05;52301.34;5100742;28;20614;-72
2021/03/26 07:42:04;;;;;;;588.63;377.73;;;;;;;-144.99;92.14;52272.81;5113584;27;20612;-74
2021/03/26 07:45:03;;;;;;;594.03;373.77;;;;;;;-144.99;92.29;52260.56;5117033;27;20623;-73
2021/03/26 07:47:59;;;;;;;562.27;381.43;;;;;;;-144.99;90.90;52289.13;5102228;27;20668;-75
2021/03/26 07:50:47;;;;;;;552.03;397.00;;;;;;;-144.99;90.76;52240.19;5099011;28;20655;-75
2021/03/26 07:53:23;;;;;;;581.83;398.37;;;;;;;-144.99;88.92;52268.72;5106207;28;20633;-74
2021/03/26 07:55:56;;;;;;;580.33;409.93;;;;;;;-144.99;88.29;52309.50;5116238;27;20403;-72
2021/03/26 07:59:03;;;;;;;569.93;434.03;;;;;;;-144.99;86.60;52236.13;5091608;28;20227;-74
2021/03/26 08:01:42;;;;;;;581.07;418.03;;;;;;;-144.99;86.70;52289.13;5102417;28;20483;-74
2021/03/26 08:04:13;;;;;;;602.50;427.33;;;;;;;-144.99;87.49;52264.66;5118373;28;20195;-74
2021/03/26 08:07:35;;;;;;;577.87;433.20;;;;;;;-144.99;87.56;52280.97;5107021;28;20212;-74
2021/03/26 08:10:16;;;;;;;573.00;433.63;;;;;;;-144.99;88.19;52280.97;5102518;28;20624;-74
2021/03/26 08:13:09;;;;;;;545.97;435.53;;;;;;;-144.99;86.11;52309.50;5122975;28;20622;-75
2021/03/26 08:15:57;;;;;;;594.50;439.83;;;;;;;-144.99;85.56;52285.03;5127825;27;20223;-78
2021/03/26 08:18:37;;;;;;;535.57;445.33;;;;;;;-144.99;84.19;52317.66;5120545;27;21012;-77
2021/03/26 08:21:13;;;;;;;521.37;463.97;;;;;;;-144.99;83.04;52309.50;5111408;28;20207;-75
2021/03/26 08:23:46;;;;;;;541.43;479.60;;;;;;;-144.99;81.84;52264.66;5124562;27;20195;-76
2021/03/26 08:26:31;;;;;;;571.33;469.00;;;;;;;-144.99;79.19;52276.88;5127050;27;20206;-74
2021/03/26 08:29:16;;;;;;;554.07;487.33;;;;;;;-144.99;78.55;52252.44;5105679;27;20196;-76
2021/03/26 08:31:54;;;;;;;556.90;497.37;;;;;;;-144.99;78.64;52268.72;5114260;27;20231;-76
2021/03/26 08:35:08;;;;;;;621.90;491.77;;;;;;;-144.99;77.17;52234.09;5135118;27;20232;-77
2021/03/26 08:37:47;;;;;;;615.57;501.03;;;;;;;-144.99;74.60;52240.19;5121705;27;20227;-75
2021/03/26 08:40:19;;;;;;;618.23;521.00;;;;;;;-144.99;74.57;52289.13;5118491;27;20310;-73
2021/03/26 08:42:49;;;;;;;617.00;513.13;;;;;;;-144.99;75.03;52268.72;5124712;27;21240;-76
2021/03/26 08:45:29;;;;;;;627.97;530.17;;;;;;;-144.99;73.95;52285.03;5120746;27;20287;-77
2021/03/26 08:48:07;;;;;;;621.27;552.90;;;;;;;-144.99;71.81;52260.56;5120608;27;20218;-77
2021/03/26 08:50:45;;;;;;;629.53;560.80;;;;;;;-144.99;72.25;52260.56;5111175;28;20199;-73
2021/03/26 08:53:27;;;;;;;636.50;567.03;;;;;;;-144.99;72.60;52244.28;5109023;27;20242;-74
2021/03/26 08:56:14;;;;;;;618.80;552.63;;;;;;;-144.99;71.72;52219.81;5114505;27;20696;-74
2021/03/26 08:58:55;;;;;;;627.10;559.43;;;;;;;-144.99;71.40;52268.72;5108822;27;20544;-76
2021/03/26 09:01:37;;;;;;;626.50;558.17;;;;;;;-144.99;71.23;52264.66;5103437;28;20266;-74
2021/03/26 09:04:36;;;;;;;634.20;565.53;;;;;;;-144.99;70.98;52264.66;5110791;27;20197;-75
2021/03/26 09:07:11;;;;;;;640.57;566.57;;;;;;;-144.99;69.94;52264.66;5117036;27;20226;-73
2021/03/26 09:10:06;;;;;;;645.07;573.30;;;;;;;-144.99;69.77;52240.19;5116150;27;20196;-74
2021/03/26 09:12:44;;;;;;;639.77;559.77;;;;;;;-144.99;69.12;52266.69;5103989;28;20189;-76
2021/03/26 09:15:46;;;;;;;639.63;569.47;;;;;;;-144.99;67.50;52223.88;5097278;27;20196;-77
2021/03/26 09:18:32;;;;;;;643.70;566.53;;;;;;;-144.99;65.82;52260.56;5105781;28;20237;-74
2021/03/26 09:21:08;;;;;;;651.33;580.07;;;;;;;-144.99;64.63;52240.19;5115864;27;20220;-75
2021/03/26 09:24:13;;;;;;;688.07;615.73;;;;;;;-144.99;62.13;52232.03;5107083;27;20199;-75
2021/03/26 09:26:57;;;;;;;678.27;606.27;;;;;;;-144.99;60.74;52260.56;5079281;27;20323;-74
2021/03/26 09:29:32;;;;;;;701.97;629.63;;;;;;;-144.99;61.16;52264.66;5100941;27;20215;-74
2021/03/26 09:32:11;;;;;;;721.43;648.77;;;;;;;-144.99;59.89;52248.34;5105986;28;20557;-75
2021/03/26 09:34:44;;;;;;;725.80;653.87;;;;;;;-144.99;59.08;52232.03;5102372;27;20720;-76
2021/03/26 09:37:24;;;;;;;753.93;683.27;;;;;;;-144.99;58.99;52236.13;5100446;27;20247;-75
2021/03/26 09:39:56;;;;;;;759.90;694.10;;;;;;;-144.99;58.32;52236.13;5105990;27;20204;-72
2021/03/26 09:42:32;;;;;;;754.87;698.17;;;;;;;-144.99;57.70;52223.88;5094896;28;20230;-76
2021/03/26 09:45:04;;;;;;;779.53;715.97;;;;;;;-144.99;57.08;52240.19;5097128;27;20210;-73
2021/03/26 09:47:37;;;;;;;783.90;720.20;;;;;;;-144.99;56.44;52203.50;5114711;27;20230;-75
2021/03/26 09:50:22;;;;;;;758.57;686.17;;;;;;;-144.99;55.58;52211.66;5105127;27;20684;-75
2021/03/26 09:52:49;;;;;;;766.60;695.10;;;;;;;-144.99;54.81;52189.25;5113688;27;20205;-76
2021/03/26 09:55:20;;;;;;;761.33;689.00;;;;;;;-144.99;54.05;52172.94;5122624;27;20222;-75
2021/03/26 09:57:52;;;;;;;765.70;694.70;;;;;;;-144.99;53.41;52232.03;5107000;27;20313;-75
2021/03/26 10:00:27;;;;;;;772.20;700.80;;;;;;;-144.99;53.04;52203.50;5109181;28;20225;-75
2021/03/26 10:03:02;;;;;;;728.13;656.30;;;;;;;-144.99;52.96;52166.81;5104396;28;20205;-77
2021/03/26 10:05:39;;;;;;;771.77;698.87;;;;;;;-144.99;52.39;52189.25;5111053;27;20244;-76
2021/03/26 10:08:34;;;;;;;796.70;722.57;;;;;;;-144.99;52.38;52170.91;5101957;27;20226;-75
2021/03/26 10:11:05;;;;;;;763.43;690.93;;;;;;;-144.99;53.11;52240.19;5092895;27;20238;-73
2021/03/26 10:13:42;;;;;;;760.87;688.57;;;;;;;-144.99;54.01;52246.31;5094768;27;20277;-75
2021/03/26 10:16:10;;;;;;;750.17;678.20;;;;;;;-144.99;54.68;52285.03;5096956;27;20207;-72
2021/03/26 10:18:42;;;;;;;789.00;721.17;;;;;;;-144.99;56.52;52264.66;5103915;27;20624;-71
2021/03/26 10:21:12;;;;;;;768.77;699.97;;;;;;;-144.99;56.71;52240.19;5099607;27;20271;-74
2021/03/26 10:23:51;;;;;;;771.00;706.83;;;;;;;-144.99;57.76;52250.38;5095850;28;20325;-72
2021/03/26 10:26:22;;;;;;;790.10;729.40;;;;;;;-144.99;56.29;52285.03;5097801;27;20201;-74
2021/03/26 10:29:22;;;;;;;761.60;701.43;;;;;;;-144.99;56.35;52256.50;5100529;27;20224;-74
2021/03/26 10:31:51;;;;;;;723.93;655.83;;;;;;;-144.99;54.80;52260.56;5106606;27;20219;-75
2021/03/26 10:34:28;;;;;;;719.13;649.63;;;;;;;-144.99;55.10;52260.56;5098392;28;20207;-72
2021/03/26 10:37:03;;;;;;;709.03;640.37;;;;;;;-144.99;54.32;52285.03;5095516;28;20215;-71
2021/03/26 10:39:34;;;;;;;688.07;620.37;;;;;;;-144.99;55.26;52340.06;5102270;27;20331;-71
2021/03/26 10:42:09;;;;;;;688.27;618.30;;;;;;;-144.99;54.67;52280.97;5104757;28;20192;-76
2021/03/26 10:44:54;;;;;;;675.47;605.23;;;;;;;-144.99;55.21;52236.13;5099063;27;20279;-78
2021/03/26 10:47:27;;;;;;;663.47;593.20;;;;;;;-144.99;57.21;52309.50;5108428;27;20911;-71
2021/03/26 10:49:57;;;;;;;672.97;602.30;;;;;;;-144.99;56.94;52293.19;5095616;28;20227;-74
2021/03/26 10:52:31;;;;;;;683.40;613.83;;;;;;;-144.99;56.93;52301.34;5103436;27;20649;-74
2021/03/26 10:55:00;;;;;;;667.17;598.30;;;;;;;-144.99;60.53;52307.47;5098727;27;20218;-73
2021/03/26 10:57:35;;;;;;;560.13;404.30;;;;;;;-144.99;56.18;52260.56;5097350;28;20720;-72
2021/03/26 11:00:16;;;;;;;561.10;414.77;;;;;;;-144.99;56.18;52297.25;5099319;27;20774;-74
2021/03/26 11:02:54;;;;;;;562.30;408.33;;;;;;;-144.99;56.81;52309.50;4395270;27;10000744;-72
2021/03/26 11:05:28;;;;;;;559.03;397.20;;;;;;;-144.99;57.68;52293.19;5096613;28;20202;-76
2021/03/26 11:08:21;;;;;;;554.20;388.63;;;;;;;-144.99;57.51;52293.19;5093887;28;20816;-71
2021/03/26 11:10:56;;;;;;;553.50;372.17;;;;;;;-144.99;56.96;52299.31;5095253;27;20693;-73
2021/03/26 11:13:31;;;;;;;550.47;362.23;;;;;;;-144.99;57.08;52293.19;5100756;27;20639;-75
2021/03/26 11:16:02;;;;;;;552.40;370.33;;;;;;;-144.99;56.30;52264.66;5104449;27;20634;-73
2021/03/26 11:18:34;;;;;;;562.33;398.57;;;;;;;-144.99;56.52;52252.44;5097624;28;20775;-72
2021/03/26 11:21:02;;;;;;;559.57;402.07;;;;;;;-144.99;57.22;52336.00;5100035;27;20649;-72